sensor_id;sensor_type;location;lat;lon;timestamp;P1;durP1;ratioP1;P2;durP2;ratioP2
14052;SDS011;7101;51.600;7.310;2023-06-26T00:01:28;8.30;;;6.50;;
14052;SDS011;7101;51.600;7.310;2023-06-26T00:03:56;8.32;;;6.85;;
14052;SDS011;7101;51.600;7.310;2023-06-26T00:06:24;7.78;;;7.07;;
14052;SDS011;7101;51.600;7.310;2023-06-26T00:08:52;7.82;;;6.78;;
14052;SDS011;7101;51.600;7.310;2023-06-26T00:11:21;8.07;;;7.13;;
14052;SDS011;7101;51.600;7.310;2023-06-26T00:13:49;7.38;;;6.68;;
14052;SDS011;7101;51.600;7.310;2023-06-26T00:16:16;8.18;;;7.28;;
14052;SDS011;7101;51.600;7.310;2023-06-26T00:18:43;9.02;;;7.00;;
14052;SDS011;7101;51.600;7.310;2023-06-26T00:21:10;9.25;;;6.95;;
14052;SDS011;7101;51.600;7.310;2023-06-26T00:23:37;8.30;;;7.50;;
14052;SDS011;7101;51.600;7.310;2023-06-26T00:26:07;7.63;;;6.88;;
14052;SDS011;7101;51.600;7.310;2023-06-26T00:28:36;9.80;;;6.80;;
14052;SDS011;7101;51.600;7.310;2023-06-26T00:31:02;9.00;;;6.95;;
14052;SDS011;7101;51.600;7.310;2023-06-26T00:33:30;7.68;;;6.88;;
14052;SDS011;7101;51.600;7.310;2023-06-26T00:35:58;7.15;;;6.45;;
14052;SDS011;7101;51.600;7.310;2023-06-26T00:38:26;7.88;;;6.85;;
14052;SDS011;7101;51.600;7.310;2023-06-26T00:40:53;7.97;;;7.05;;
14052;SDS011;7101;51.600;7.310;2023-06-26T00:43:21;7.75;;;6.95;;
14052;SDS011;7101;51.600;7.310;2023-06-26T00:45:49;7.50;;;6.78;;
14052;SDS011;7101;51.600;7.310;2023-06-26T00:48:17;9.60;;;6.93;;
14052;SDS011;7101;51.600;7.310;2023-06-26T00:50:44;7.57;;;6.78;;
14052;SDS011;7101;51.600;7.310;2023-06-26T00:53:11;8.15;;;6.82;;
14052;SDS011;7101;51.600;7.310;2023-06-26T00:55:38;10.27;;;7.10;;
14052;SDS011;7101;51.600;7.310;2023-06-26T00:58:05;7.55;;;6.70;;
14052;SDS011;7101;51.600;7.310;2023-06-26T01:00:32;7.50;;;6.25;;
14052;SDS011;7101;51.600;7.310;2023-06-26T01:03:01;7.18;;;6.35;;
14052;SDS011;7101;51.600;7.310;2023-06-26T01:05:29;7.15;;;6.13;;
14052;SDS011;7101;51.600;7.310;2023-06-26T01:07:56;7.28;;;6.10;;
14052;SDS011;7101;51.600;7.310;2023-06-26T01:10:30;6.72;;;6.03;;
14052;SDS011;7101;51.600;7.310;2023-06-26T01:12:57;6.30;;;5.65;;
14052;SDS011;7101;51.600;7.310;2023-06-26T01:15:25;6.40;;;5.80;;
14052;SDS011;7101;51.600;7.310;2023-06-26T01:17:52;6.45;;;5.45;;
14052;SDS011;7101;51.600;7.310;2023-06-26T01:20:22;5.97;;;4.90;;
14052;SDS011;7101;51.600;7.310;2023-06-26T01:22:52;8.30;;;5.20;;
14052;SDS011;7101;51.600;7.310;2023-06-26T01:25:33;6.35;;;5.53;;
14052;SDS011;7101;51.600;7.310;2023-06-26T01:28:08;7.10;;;5.45;;
14052;SDS011;7101;51.600;7.310;2023-06-26T01:30:39;9.05;;;5.68;;
14052;SDS011;7101;51.600;7.310;2023-06-26T01:33:09;5.95;;;5.28;;
14052;SDS011;7101;51.600;7.310;2023-06-26T01:35:38;5.43;;;4.90;;
14052;SDS011;7101;51.600;7.310;2023-06-26T01:38:12;6.53;;;5.03;;
14052;SDS011;7101;51.600;7.310;2023-06-26T01:40:42;6.07;;;5.18;;
14052;SDS011;7101;51.600;7.310;2023-06-26T01:43:13;7.57;;;5.25;;
14052;SDS011;7101;51.600;7.310;2023-06-26T01:45:45;6.68;;;5.00;;
14052;SDS011;7101;51.600;7.310;2023-06-26T01:48:14;5.70;;;5.10;;
14052;SDS011;7101;51.600;7.310;2023-06-26T01:50:45;5.32;;;4.82;;
14052;SDS011;7101;51.600;7.310;2023-06-26T01:53:16;6.55;;;5.82;;
14052;SDS011;7101;51.600;7.310;2023-06-26T01:55:46;7.88;;;5.15;;
14052;SDS011;7101;51.600;7.310;2023-06-26T01:58:18;7.20;;;4.97;;
14052;SDS011;7101;51.600;7.310;2023-06-26T02:00:49;5.80;;;5.20;;
14052;SDS011;7101;51.600;7.310;2023-06-26T02:03:17;6.03;;;5.07;;
14052;SDS011;7101;51.600;7.310;2023-06-26T02:05:46;5.57;;;5.00;;
14052;SDS011;7101;51.600;7.310;2023-06-26T02:10:44;5.88;;;5.35;;
14052;SDS011;7101;51.600;7.310;2023-06-26T02:13:12;6.95;;;5.60;;
14052;SDS011;7101;51.600;7.310;2023-06-26T02:15:41;6.55;;;5.47;;
14052;SDS011;7101;51.600;7.310;2023-06-26T02:18:07;6.32;;;5.60;;
14052;SDS011;7101;51.600;7.310;2023-06-26T02:20:35;6.28;;;5.30;;
14052;SDS011;7101;51.600;7.310;2023-06-26T02:23:08;5.88;;;5.22;;
14052;SDS011;7101;51.600;7.310;2023-06-26T02:25:35;7.20;;;5.63;;
14052;SDS011;7101;51.600;7.310;2023-06-26T02:28:02;6.40;;;5.47;;
14052;SDS011;7101;51.600;7.310;2023-06-26T02:30:29;7.18;;;5.50;;
14052;SDS011;7101;51.600;7.310;2023-06-26T02:32:57;6.18;;;5.28;;
14052;SDS011;7101;51.600;7.310;2023-06-26T02:35:25;5.90;;;5.13;;
14052;SDS011;7101;51.600;7.310;2023-06-26T02:37:53;5.95;;;5.35;;
14052;SDS011;7101;51.600;7.310;2023-06-26T02:40:20;6.03;;;5.43;;
14052;SDS011;7101;51.600;7.310;2023-06-26T02:42:47;6.25;;;5.65;;
14052;SDS011;7101;51.600;7.310;2023-06-26T02:45:14;6.85;;;5.82;;
14052;SDS011;7101;51.600;7.310;2023-06-26T02:47:41;6.03;;;5.35;;
14052;SDS011;7101;51.600;7.310;2023-06-26T02:50:10;7.25;;;5.43;;
14052;SDS011;7101;51.600;7.310;2023-06-26T02:52:37;6.28;;;5.55;;
14052;SDS011;7101;51.600;7.310;2023-06-26T02:55:04;6.20;;;5.60;;
14052;SDS011;7101;51.600;7.310;2023-06-26T02:57:33;6.60;;;5.30;;
14052;SDS011;7101;51.600;7.310;2023-06-26T02:59:59;5.70;;;5.10;;
14052;SDS011;7101;51.600;7.310;2023-06-26T03:02:27;6.30;;;5.40;;
14052;SDS011;7101;51.600;7.310;2023-06-26T03:04:59;6.95;;;5.50;;
14052;SDS011;7101;51.600;7.310;2023-06-26T03:07:30;6.03;;;5.32;;
14052;SDS011;7101;51.600;7.310;2023-06-26T03:09:57;6.72;;;6.03;;
14052;SDS011;7101;51.600;7.310;2023-06-26T03:12:26;7.13;;;5.93;;
14052;SDS011;7101;51.600;7.310;2023-06-26T03:14:57;6.40;;;5.22;;
14052;SDS011;7101;51.600;7.310;2023-06-26T03:17:32;6.20;;;5.60;;
14052;SDS011;7101;51.600;7.310;2023-06-26T03:19:59;7.47;;;6.00;;
14052;SDS011;7101;51.600;7.310;2023-06-26T03:22:26;6.28;;;5.68;;
14052;SDS011;7101;51.600;7.310;2023-06-26T03:27:48;7.93;;;6.10;;
14052;SDS011;7101;51.600;7.310;2023-06-26T03:32:47;6.10;;;5.50;;
14052;SDS011;7101;51.600;7.310;2023-06-26T03:35:14;7.25;;;5.90;;
14052;SDS011;7101;51.600;7.310;2023-06-26T03:37:41;7.93;;;5.82;;
14052;SDS011;7101;51.600;7.310;2023-06-26T03:40:09;10.60;;;6.50;;
14052;SDS011;7101;51.600;7.310;2023-06-26T03:42:48;7.88;;;6.43;;
14052;SDS011;7101;51.600;7.310;2023-06-26T03:47:45;7.53;;;6.72;;
14052;SDS011;7101;51.600;7.310;2023-06-26T03:50:14;7.93;;;6.78;;
14052;SDS011;7101;51.600;7.310;2023-06-26T03:52:41;7.80;;;6.13;;
14052;SDS011;7101;51.600;7.310;2023-06-26T03:55:10;7.88;;;5.50;;
14052;SDS011;7101;51.600;7.310;2023-06-26T03:57:37;8.48;;;6.65;;
14052;SDS011;7101;51.600;7.310;2023-06-26T04:00:14;7.80;;;5.85;;
14052;SDS011;7101;51.600;7.310;2023-06-26T04:02:43;9.48;;;5.70;;
14052;SDS011;7101;51.600;7.310;2023-06-26T04:05:10;7.70;;;5.93;;
14052;SDS011;7101;51.600;7.310;2023-06-26T04:07:37;6.70;;;5.70;;
14052;SDS011;7101;51.600;7.310;2023-06-26T04:10:06;7.45;;;5.45;;
14052;SDS011;7101;51.600;7.310;2023-06-26T04:12:33;7.50;;;5.78;;
14052;SDS011;7101;51.600;7.310;2023-06-26T04:15:00;6.43;;;5.22;;
14052;SDS011;7101;51.600;7.310;2023-06-26T04:17:30;5.50;;;4.82;;
14052;SDS011;7101;51.600;7.310;2023-06-26T04:19:58;9.65;;;5.47;;
14052;SDS011;7101;51.600;7.310;2023-06-26T04:22:24;5.93;;;5.25;;
14052;SDS011;7101;51.600;7.310;2023-06-26T04:24:51;8.15;;;5.30;;
14052;SDS011;7101;51.600;7.310;2023-06-26T04:27:20;6.97;;;4.95;;
14052;SDS011;7101;51.600;7.310;2023-06-26T04:29:47;6.57;;;5.20;;
14052;SDS011;7101;51.600;7.310;2023-06-26T04:32:16;7.03;;;5.40;;
14052;SDS011;7101;51.600;7.310;2023-06-26T04:34:51;5.95;;;4.75;;
14052;SDS011;7101;51.600;7.310;2023-06-26T04:39:49;7.00;;;5.32;;
14052;SDS011;7101;51.600;7.310;2023-06-26T04:42:17;6.85;;;5.25;;
14052;SDS011;7101;51.600;7.310;2023-06-26T04:44:47;6.43;;;5.18;;
14052;SDS011;7101;51.600;7.310;2023-06-26T04:47:14;7.25;;;5.78;;
14052;SDS011;7101;51.600;7.310;2023-06-26T04:49:43;10.23;;;5.40;;
14052;SDS011;7101;51.600;7.310;2023-06-26T04:52:18;9.13;;;5.53;;
14052;SDS011;7101;51.600;7.310;2023-06-26T04:54:46;13.98;;;5.93;;
14052;SDS011;7101;51.600;7.310;2023-06-26T04:57:16;7.35;;;5.63;;
14052;SDS011;7101;51.600;7.310;2023-06-26T04:59:43;6.47;;;5.63;;
14052;SDS011;7101;51.600;7.310;2023-06-26T05:02:10;6.38;;;5.43;;
14052;SDS011;7101;51.600;7.310;2023-06-26T05:04:41;8.98;;;5.57;;
14052;SDS011;7101;51.600;7.310;2023-06-26T05:07:08;6.90;;;5.00;;
14052;SDS011;7101;51.600;7.310;2023-06-26T05:09:37;8.02;;;5.40;;
14052;SDS011;7101;51.600;7.310;2023-06-26T05:12:04;6.55;;;4.82;;
14052;SDS011;7101;51.600;7.310;2023-06-26T05:14:32;7.20;;;5.45;;
14052;SDS011;7101;51.600;7.310;2023-06-26T05:16:59;8.23;;;5.15;;
14052;SDS011;7101;51.600;7.310;2023-06-26T05:19:26;8.55;;;4.90;;
14052;SDS011;7101;51.600;7.310;2023-06-26T05:21:54;6.40;;;4.95;;
14052;SDS011;7101;51.600;7.310;2023-06-26T05:24:21;9.00;;;4.75;;
14052;SDS011;7101;51.600;7.310;2023-06-26T05:26:52;7.90;;;5.10;;
14052;SDS011;7101;51.600;7.310;2023-06-26T05:29:21;6.32;;;4.80;;
14052;SDS011;7101;51.600;7.310;2023-06-26T05:31:48;8.02;;;4.68;;
14052;SDS011;7101;51.600;7.310;2023-06-26T05:34:22;7.40;;;4.45;;
14052;SDS011;7101;51.600;7.310;2023-06-26T05:36:51;7.03;;;4.97;;
14052;SDS011;7101;51.600;7.310;2023-06-26T05:39:23;6.93;;;4.50;;
14052;SDS011;7101;51.600;7.310;2023-06-26T05:41:54;7.65;;;4.57;;
14052;SDS011;7101;51.600;7.310;2023-06-26T05:44:22;12.65;;;5.00;;
14052;SDS011;7101;51.600;7.310;2023-06-26T05:46:49;4.75;;;4.30;;
14052;SDS011;7101;51.600;7.310;2023-06-26T05:49:16;7.32;;;4.60;;
14052;SDS011;7101;51.600;7.310;2023-06-26T05:51:43;8.13;;;4.20;;
14052;SDS011;7101;51.600;7.310;2023-06-26T05:54:11;5.45;;;4.43;;
14052;SDS011;7101;51.600;7.310;2023-06-26T05:56:39;7.45;;;4.30;;
14052;SDS011;7101;51.600;7.310;2023-06-26T05:59:09;6.50;;;4.55;;
14052;SDS011;7101;51.600;7.310;2023-06-26T06:01:40;5.47;;;4.40;;
14052;SDS011;7101;51.600;7.310;2023-06-26T06:04:08;9.52;;;4.95;;
14052;SDS011;7101;51.600;7.310;2023-06-26T06:06:35;7.78;;;4.43;;
14052;SDS011;7101;51.600;7.310;2023-06-26T06:09:02;7.05;;;4.10;;
14052;SDS011;7101;51.600;7.310;2023-06-26T06:11:33;7.85;;;4.15;;
14052;SDS011;7101;51.600;7.310;2023-06-26T06:14:00;6.85;;;4.70;;
14052;SDS011;7101;51.600;7.310;2023-06-26T06:16:30;6.18;;;4.20;;
14052;SDS011;7101;51.600;7.310;2023-06-26T06:18:57;9.35;;;4.40;;
14052;SDS011;7101;51.600;7.310;2023-06-26T06:21:25;9.52;;;4.53;;
14052;SDS011;7101;51.600;7.310;2023-06-26T06:23:52;6.35;;;4.10;;
14052;SDS011;7101;51.600;7.310;2023-06-26T06:26:19;6.50;;;4.07;;
14052;SDS011;7101;51.600;7.310;2023-06-26T06:28:46;5.78;;;3.92;;
14052;SDS011;7101;51.600;7.310;2023-06-26T06:31:13;8.27;;;4.43;;
14052;SDS011;7101;51.600;7.310;2023-06-26T06:33:41;8.60;;;4.38;;
14052;SDS011;7101;51.600;7.310;2023-06-26T06:36:08;6.88;;;4.20;;
14052;SDS011;7101;51.600;7.310;2023-06-26T06:38:35;8.98;;;4.43;;
14052;SDS011;7101;51.600;7.310;2023-06-26T06:41:02;7.35;;;4.40;;
14052;SDS011;7101;51.600;7.310;2023-06-26T06:43:34;6.80;;;4.45;;
14052;SDS011;7101;51.600;7.310;2023-06-26T06:46:02;9.88;;;5.15;;
14052;SDS011;7101;51.600;7.310;2023-06-26T06:48:29;10.15;;;4.00;;
14052;SDS011;7101;51.600;7.310;2023-06-26T06:51:00;7.90;;;4.28;;
14052;SDS011;7101;51.600;7.310;2023-06-26T06:53:29;13.98;;;4.55;;
14052;SDS011;7101;51.600;7.310;2023-06-26T06:55:58;8.45;;;4.10;;
14052;SDS011;7101;51.600;7.310;2023-06-26T06:58:29;11.07;;;4.80;;
14052;SDS011;7101;51.600;7.310;2023-06-26T07:01:05;11.38;;;4.85;;
14052;SDS011;7101;51.600;7.310;2023-06-26T07:03:42;12.70;;;4.72;;
14052;SDS011;7101;51.600;7.310;2023-06-26T07:06:11;12.63;;;4.90;;
14052;SDS011;7101;51.600;7.310;2023-06-26T07:08:41;10.75;;;4.72;;
14052;SDS011;7101;51.600;7.310;2023-06-26T07:13:57;10.73;;;5.47;;
14052;SDS011;7101;51.600;7.310;2023-06-26T07:16:27;12.55;;;5.40;;
14052;SDS011;7101;51.600;7.310;2023-06-26T07:18:54;7.45;;;4.50;;
14052;SDS011;7101;51.600;7.310;2023-06-26T07:21:23;11.68;;;4.93;;
14052;SDS011;7101;51.600;7.310;2023-06-26T07:23:56;10.70;;;5.13;;
14052;SDS011;7101;51.600;7.310;2023-06-26T07:26:29;10.45;;;4.90;;
14052;SDS011;7101;51.600;7.310;2023-06-26T07:28:57;11.88;;;5.35;;
14052;SDS011;7101;51.600;7.310;2023-06-26T07:31:23;9.90;;;4.95;;
14052;SDS011;7101;51.600;7.310;2023-06-26T07:33:53;9.18;;;4.35;;
14052;SDS011;7101;51.600;7.310;2023-06-26T07:36:19;7.22;;;4.35;;
14052;SDS011;7101;51.600;7.310;2023-06-26T07:38:48;9.63;;;4.90;;
14052;SDS011;7101;51.600;7.310;2023-06-26T07:41:17;8.90;;;4.45;;
14052;SDS011;7101;51.600;7.310;2023-06-26T07:43:45;9.88;;;4.70;;
14052;SDS011;7101;51.600;7.310;2023-06-26T07:46:13;6.85;;;4.68;;
14052;SDS011;7101;51.600;7.310;2023-06-26T07:48:40;10.10;;;4.15;;
14052;SDS011;7101;51.600;7.310;2023-06-26T07:51:20;10.45;;;4.88;;
14052;SDS011;7101;51.600;7.310;2023-06-26T07:53:50;8.07;;;4.20;;
14052;SDS011;7101;51.600;7.310;2023-06-26T07:56:17;10.20;;;4.80;;
14052;SDS011;7101;51.600;7.310;2023-06-26T07:58:45;9.40;;;5.00;;
14052;SDS011;7101;51.600;7.310;2023-06-26T08:01:12;14.45;;;4.65;;
14052;SDS011;7101;51.600;7.310;2023-06-26T08:03:38;8.43;;;4.78;;
14052;SDS011;7101;51.600;7.310;2023-06-26T08:06:09;8.27;;;4.45;;
14052;SDS011;7101;51.600;7.310;2023-06-26T08:08:42;10.13;;;4.93;;
14052;SDS011;7101;51.600;7.310;2023-06-26T08:11:16;10.13;;;4.90;;
14052;SDS011;7101;51.600;7.310;2023-06-26T08:13:42;12.95;;;5.05;;
14052;SDS011;7101;51.600;7.310;2023-06-26T08:16:09;11.00;;;4.72;;
14052;SDS011;7101;51.600;7.310;2023-06-26T08:18:36;11.23;;;5.28;;
14052;SDS011;7101;51.600;7.310;2023-06-26T08:21:03;9.48;;;4.65;;
14052;SDS011;7101;51.600;7.310;2023-06-26T08:23:30;10.75;;;4.47;;
14052;SDS011;7101;51.600;7.310;2023-06-26T08:25:57;9.60;;;4.65;;
14052;SDS011;7101;51.600;7.310;2023-06-26T08:28:25;8.68;;;4.95;;
14052;SDS011;7101;51.600;7.310;2023-06-26T08:30:54;8.48;;;4.80;;
14052;SDS011;7101;51.600;7.310;2023-06-26T08:33:27;9.82;;;4.65;;
14052;SDS011;7101;51.600;7.310;2023-06-26T08:35:54;11.70;;;5.20;;
14052;SDS011;7101;51.600;7.310;2023-06-26T08:38:23;8.52;;;4.68;;
14052;SDS011;7101;51.600;7.310;2023-06-26T08:40:50;8.57;;;4.55;;
14052;SDS011;7101;51.600;7.310;2023-06-26T08:43:17;9.63;;;4.60;;
14052;SDS011;7101;51.600;7.310;2023-06-26T08:48:22;8.07;;;3.75;;
14052;SDS011;7101;51.600;7.310;2023-06-26T08:50:52;10.73;;;4.50;;
14052;SDS011;7101;51.600;7.310;2023-06-26T08:53:23;10.80;;;4.40;;
14052;SDS011;7101;51.600;7.310;2023-06-26T08:55:59;10.15;;;4.05;;
14052;SDS011;7101;51.600;7.310;2023-06-26T08:58:33;9.30;;;4.53;;
14052;SDS011;7101;51.600;7.310;2023-06-26T09:01:04;9.65;;;4.70;;
14052;SDS011;7101;51.600;7.310;2023-06-26T09:03:33;10.27;;;4.30;;
14052;SDS011;7101;51.600;7.310;2023-06-26T09:06:02;10.85;;;4.45;;
14052;SDS011;7101;51.600;7.310;2023-06-26T09:08:30;12.40;;;4.50;;
14052;SDS011;7101;51.600;7.310;2023-06-26T09:10:57;11.80;;;4.35;;
14052;SDS011;7101;51.600;7.310;2023-06-26T09:13:23;8.30;;;4.43;;
14052;SDS011;7101;51.600;7.310;2023-06-26T09:15:53;8.93;;;3.83;;
14052;SDS011;7101;51.600;7.310;2023-06-26T09:18:24;7.30;;;3.92;;
14052;SDS011;7101;51.600;7.310;2023-06-26T09:20:51;11.13;;;4.30;;
14052;SDS011;7101;51.600;7.310;2023-06-26T09:23:18;9.05;;;4.18;;
14052;SDS011;7101;51.600;7.310;2023-06-26T09:25:48;10.43;;;4.15;;
14052;SDS011;7101;51.600;7.310;2023-06-26T09:28:17;8.68;;;3.78;;
14052;SDS011;7101;51.600;7.310;2023-06-26T09:30:44;7.88;;;3.70;;
14052;SDS011;7101;51.600;7.310;2023-06-26T09:33:13;7.15;;;3.78;;
14052;SDS011;7101;51.600;7.310;2023-06-26T09:35:43;7.82;;;3.58;;
14052;SDS011;7101;51.600;7.310;2023-06-26T09:38:11;6.93;;;4.13;;
14052;SDS011;7101;51.600;7.310;2023-06-26T09:40:38;8.07;;;3.55;;
14052;SDS011;7101;51.600;7.310;2023-06-26T09:43:05;10.55;;;3.60;;
14052;SDS011;7101;51.600;7.310;2023-06-26T09:45:33;8.85;;;4.00;;
14052;SDS011;7101;51.600;7.310;2023-06-26T09:48:01;10.57;;;3.90;;
14052;SDS011;7101;51.600;7.310;2023-06-26T09:50:29;9.25;;;3.55;;
14052;SDS011;7101;51.600;7.310;2023-06-26T09:53:00;9.80;;;3.78;;
14052;SDS011;7101;51.600;7.310;2023-06-26T09:55:35;7.43;;;3.15;;
14052;SDS011;7101;51.600;7.310;2023-06-26T09:58:03;9.32;;;3.33;;
14052;SDS011;7101;51.600;7.310;2023-06-26T10:00:30;10.18;;;3.50;;
14052;SDS011;7101;51.600;7.310;2023-06-26T10:02:59;9.70;;;3.60;;
14052;SDS011;7101;51.600;7.310;2023-06-26T10:05:26;8.98;;;3.47;;
14052;SDS011;7101;51.600;7.310;2023-06-26T10:07:54;7.82;;;3.00;;
14052;SDS011;7101;51.600;7.310;2023-06-26T10:10:23;8.00;;;2.95;;
14052;SDS011;7101;51.600;7.310;2023-06-26T10:12:54;8.50;;;3.03;;
14052;SDS011;7101;51.600;7.310;2023-06-26T10:15:26;7.50;;;3.05;;
14052;SDS011;7101;51.600;7.310;2023-06-26T10:17:55;7.13;;;3.13;;
14052;SDS011;7101;51.600;7.310;2023-06-26T10:20:24;6.47;;;3.08;;
14052;SDS011;7101;51.600;7.310;2023-06-26T10:22:53;6.25;;;2.83;;
14052;SDS011;7101;51.600;7.310;2023-06-26T10:25:25;6.40;;;3.75;;
14052;SDS011;7101;51.600;7.310;2023-06-26T10:27:57;5.15;;;3.08;;
14052;SDS011;7101;51.600;7.310;2023-06-26T10:30:26;8.27;;;3.47;;
14052;SDS011;7101;51.600;7.310;2023-06-26T10:32:56;3.90;;;2.58;;
14052;SDS011;7101;51.600;7.310;2023-06-26T10:35:24;5.40;;;3.00;;
14052;SDS011;7101;51.600;7.310;2023-06-26T10:37:52;5.55;;;2.95;;
14052;SDS011;7101;51.600;7.310;2023-06-26T10:40:39;6.18;;;3.10;;
14052;SDS011;7101;51.600;7.310;2023-06-26T10:43:08;6.30;;;3.33;;
14052;SDS011;7101;51.600;7.310;2023-06-26T10:45:38;6.03;;;2.80;;
14052;SDS011;7101;51.600;7.310;2023-06-26T10:48:10;4.30;;;2.25;;
14052;SDS011;7101;51.600;7.310;2023-06-26T10:50:39;10.75;;;2.50;;
14052;SDS011;7101;51.600;7.310;2023-06-26T10:53:11;6.25;;;2.60;;
14052;SDS011;7101;51.600;7.310;2023-06-26T10:55:50;5.38;;;2.38;;
14052;SDS011;7101;51.600;7.310;2023-06-26T10:58:28;6.40;;;2.50;;
14052;SDS011;7101;51.600;7.310;2023-06-26T11:01:17;3.25;;;1.92;;
14052;SDS011;7101;51.600;7.310;2023-06-26T11:03:47;6.95;;;2.70;;
14052;SDS011;7101;51.600;7.310;2023-06-26T11:06:17;8.70;;;2.40;;
14052;SDS011;7101;51.600;7.310;2023-06-26T11:08:48;4.70;;;2.20;;
14052;SDS011;7101;51.600;7.310;2023-06-26T11:11:18;8.20;;;2.78;;
14052;SDS011;7101;51.600;7.310;2023-06-26T11:13:45;5.85;;;2.70;;
14052;SDS011;7101;51.600;7.310;2023-06-26T11:16:13;6.40;;;2.72;;
14052;SDS011;7101;51.600;7.310;2023-06-26T11:18:41;5.28;;;2.80;;
14052;SDS011;7101;51.600;7.310;2023-06-26T11:21:09;7.07;;;2.67;;
14052;SDS011;7101;51.600;7.310;2023-06-26T11:23:40;5.30;;;2.60;;
14052;SDS011;7101;51.600;7.310;2023-06-26T11:26:14;4.95;;;2.53;;
14052;SDS011;7101;51.600;7.310;2023-06-26T11:28:50;5.22;;;2.60;;
14052;SDS011;7101;51.600;7.310;2023-06-26T11:31:26;5.22;;;2.85;;
14052;SDS011;7101;51.600;7.310;2023-06-26T11:33:55;5.93;;;3.00;;
14052;SDS011;7101;51.600;7.310;2023-06-26T11:36:23;6.35;;;2.70;;
14052;SDS011;7101;51.600;7.310;2023-06-26T11:38:54;7.10;;;3.00;;
14052;SDS011;7101;51.600;7.310;2023-06-26T11:41:24;5.47;;;2.80;;
14052;SDS011;7101;51.600;7.310;2023-06-26T11:43:56;12.20;;;2.90;;
14052;SDS011;7101;51.600;7.310;2023-06-26T11:46:28;4.50;;;2.35;;
14052;SDS011;7101;51.600;7.310;2023-06-26T11:48:55;5.28;;;2.53;;
14052;SDS011;7101;51.600;7.310;2023-06-26T11:51:22;4.43;;;2.58;;
14052;SDS011;7101;51.600;7.310;2023-06-26T11:53:48;4.63;;;1.90;;
14052;SDS011;7101;51.600;7.310;2023-06-26T11:56:16;3.80;;;2.08;;
14052;SDS011;7101;51.600;7.310;2023-06-26T11:58:59;4.72;;;2.15;;
14052;SDS011;7101;51.600;7.310;2023-06-26T12:01:30;7.10;;;2.25;;
14052;SDS011;7101;51.600;7.310;2023-06-26T12:04:00;5.97;;;2.08;;
14052;SDS011;7101;51.600;7.310;2023-06-26T12:06:29;6.50;;;2.22;;
14052;SDS011;7101;51.600;7.310;2023-06-26T12:09:00;5.72;;;1.92;;
14052;SDS011;7101;51.600;7.310;2023-06-26T12:11:30;3.88;;;1.95;;
14052;SDS011;7101;51.600;7.310;2023-06-26T12:14:00;4.30;;;2.13;;
14052;SDS011;7101;51.600;7.310;2023-06-26T12:16:30;6.22;;;1.90;;
14052;SDS011;7101;51.600;7.310;2023-06-26T12:19:01;5.35;;;1.85;;
14052;SDS011;7101;51.600;7.310;2023-06-26T12:21:33;7.47;;;1.80;;
14052;SDS011;7101;51.600;7.310;2023-06-26T12:24:12;6.90;;;1.80;;
14052;SDS011;7101;51.600;7.310;2023-06-26T12:26:41;6.68;;;2.00;;
14052;SDS011;7101;51.600;7.310;2023-06-26T12:29:11;7.18;;;1.70;;
14052;SDS011;7101;51.600;7.310;2023-06-26T12:31:40;3.58;;;1.60;;
14052;SDS011;7101;51.600;7.310;2023-06-26T12:34:08;10.32;;;1.60;;
14052;SDS011;7101;51.600;7.310;2023-06-26T12:36:40;6.70;;;1.30;;
14052;SDS011;7101;51.600;7.310;2023-06-26T12:39:10;3.03;;;1.35;;
14052;SDS011;7101;51.600;7.310;2023-06-26T12:41:47;3.45;;;1.08;;
14052;SDS011;7101;51.600;7.310;2023-06-26T12:44:24;3.97;;;1.40;;
14052;SDS011;7101;51.600;7.310;2023-06-26T12:47:00;3.20;;;1.10;;
14052;SDS011;7101;51.600;7.310;2023-06-26T12:49:31;3.15;;;1.13;;
14052;SDS011;7101;51.600;7.310;2023-06-26T12:52:03;2.08;;;1.30;;
14052;SDS011;7101;51.600;7.310;2023-06-26T12:54:33;6.82;;;1.30;;
14052;SDS011;7101;51.600;7.310;2023-06-26T12:57:00;3.25;;;1.38;;
14052;SDS011;7101;51.600;7.310;2023-06-26T12:59:32;4.00;;;1.17;;
14052;SDS011;7101;51.600;7.310;2023-06-26T13:02:02;3.45;;;1.20;;
14052;SDS011;7101;51.600;7.310;2023-06-26T13:04:33;4.25;;;1.40;;
14052;SDS011;7101;51.600;7.310;2023-06-26T13:07:02;2.45;;;1.48;;
14052;SDS011;7101;51.600;7.310;2023-06-26T13:09:31;2.75;;;1.35;;
14052;SDS011;7101;51.600;7.310;2023-06-26T13:12:01;2.25;;;1.30;;
14052;SDS011;7101;51.600;7.310;2023-06-26T13:14:30;3.50;;;1.30;;
14052;SDS011;7101;51.600;7.310;2023-06-26T13:17:00;4.05;;;1.80;;
14052;SDS011;7101;51.600;7.310;2023-06-26T13:19:27;7.03;;;1.63;;
14052;SDS011;7101;51.600;7.310;2023-06-26T13:21:54;2.65;;;1.40;;
14052;SDS011;7101;51.600;7.310;2023-06-26T13:24:23;2.17;;;1.40;;
14052;SDS011;7101;51.600;7.310;2023-06-26T13:26:51;2.30;;;1.15;;
14052;SDS011;7101;51.600;7.310;2023-06-26T13:29:21;4.00;;;1.73;;
14052;SDS011;7101;51.600;7.310;2023-06-26T13:31:52;3.10;;;1.63;;
14052;SDS011;7101;51.600;7.310;2023-06-26T13:34:29;5.78;;;1.65;;
14052;SDS011;7101;51.600;7.310;2023-06-26T13:36:56;3.88;;;1.48;;
14052;SDS011;7101;51.600;7.310;2023-06-26T13:39:24;7.03;;;1.67;;
14052;SDS011;7101;51.600;7.310;2023-06-26T13:41:53;5.53;;;1.60;;
14052;SDS011;7101;51.600;7.310;2023-06-26T13:44:21;5.15;;;1.65;;
14052;SDS011;7101;51.600;7.310;2023-06-26T13:46:53;3.63;;;1.60;;
14052;SDS011;7101;51.600;7.310;2023-06-26T13:49:19;6.13;;;1.80;;
14052;SDS011;7101;51.600;7.310;2023-06-26T13:51:48;6.25;;;1.70;;
14052;SDS011;7101;51.600;7.310;2023-06-26T13:54:15;4.43;;;1.55;;
14052;SDS011;7101;51.600;7.310;2023-06-26T13:56:43;2.83;;;1.30;;
14052;SDS011;7101;51.600;7.310;2023-06-26T13:59:11;5.13;;;1.40;;
14052;SDS011;7101;51.600;7.310;2023-06-26T14:01:39;3.63;;;1.30;;
14052;SDS011;7101;51.600;7.310;2023-06-26T14:04:07;4.45;;;1.83;;
14052;SDS011;7101;51.600;7.310;2023-06-26T14:06:34;12.75;;;1.65;;
14052;SDS011;7101;51.600;7.310;2023-06-26T14:09:07;4.88;;;1.60;;
14052;SDS011;7101;51.600;7.310;2023-06-26T14:11:36;4.88;;;1.30;;
14052;SDS011;7101;51.600;7.310;2023-06-26T14:14:09;3.13;;;1.55;;
14052;SDS011;7101;51.600;7.310;2023-06-26T14:16:37;5.15;;;1.15;;
14052;SDS011;7101;51.600;7.310;2023-06-26T14:19:05;4.57;;;1.42;;
14052;SDS011;7101;51.600;7.310;2023-06-26T14:21:32;5.43;;;1.30;;
14052;SDS011;7101;51.600;7.310;2023-06-26T14:23:59;5.40;;;1.40;;
14052;SDS011;7101;51.600;7.310;2023-06-26T14:26:29;2.25;;;1.10;;
14052;SDS011;7101;51.600;7.310;2023-06-26T14:28:58;2.78;;;1.30;;
14052;SDS011;7101;51.600;7.310;2023-06-26T14:31:25;2.75;;;1.10;;
14052;SDS011;7101;51.600;7.310;2023-06-26T14:33:55;3.17;;;1.70;;
14052;SDS011;7101;51.600;7.310;2023-06-26T14:36:25;4.53;;;1.40;;
14052;SDS011;7101;51.600;7.310;2023-06-26T14:38:59;3.58;;;1.23;;
14052;SDS011;7101;51.600;7.310;2023-06-26T14:41:26;5.78;;;1.35;;
14052;SDS011;7101;51.600;7.310;2023-06-26T14:43:56;4.72;;;1.70;;
14052;SDS011;7101;51.600;7.310;2023-06-26T14:46:24;2.67;;;1.50;;
14052;SDS011;7101;51.600;7.310;2023-06-26T14:48:51;2.90;;;1.30;;
14052;SDS011;7101;51.600;7.310;2023-06-26T14:51:22;3.28;;;1.40;;
14052;SDS011;7101;51.600;7.310;2023-06-26T14:53:51;3.50;;;1.52;;
14052;SDS011;7101;51.600;7.310;2023-06-26T14:56:23;3.85;;;1.35;;
14052;SDS011;7101;51.600;7.310;2023-06-26T14:58:52;4.35;;;1.65;;
14052;SDS011;7101;51.600;7.310;2023-06-26T15:01:20;5.68;;;1.52;;
14052;SDS011;7101;51.600;7.310;2023-06-26T15:03:47;2.20;;;1.17;;
14052;SDS011;7101;51.600;7.310;2023-06-26T15:06:15;4.63;;;1.30;;
14052;SDS011;7101;51.600;7.310;2023-06-26T15:08:43;5.55;;;1.60;;
14052;SDS011;7101;51.600;7.310;2023-06-26T15:11:12;2.08;;;1.10;;
14052;SDS011;7101;51.600;7.310;2023-06-26T15:13:43;2.72;;;1.30;;
14052;SDS011;7101;51.600;7.310;2023-06-26T15:16:14;6.57;;;1.50;;
14052;SDS011;7101;51.600;7.310;2023-06-26T15:18:41;3.92;;;1.33;;
14052;SDS011;7101;51.600;7.310;2023-06-26T15:21:08;4.38;;;1.77;;
14052;SDS011;7101;51.600;7.310;2023-06-26T15:23:35;3.92;;;1.63;;
14052;SDS011;7101;51.600;7.310;2023-06-26T15:26:03;8.23;;;1.95;;
14052;SDS011;7101;51.600;7.310;2023-06-26T15:28:31;3.75;;;1.88;;
14052;SDS011;7101;51.600;7.310;2023-06-26T15:30:58;2.53;;;1.40;;